Barranco, Belize

5:28 AM CST on April 26, 2017 (GMT -0600)
Tierra Colorada | | Change Station

Elev 180 ft 15.84 °N, 89.18 °W | Updated 15 seconds ago

Clear
Clear
73.8 °F
Feels Like 73.8 °F
N
0.0
Wind Variable Wind from SSE
Gusts 0.0 mph

Today
High -- | Low -- °F
--% Chance of Precip.
Yesterday
High -- | Low -- °F
Precip. -- in
Pressure 29.74 in
Visibility 6.2 miles
Clouds Few 1600 ft
Scattered Clouds 9000 ft
Dew Point 74 °F
Humidity 99%
Rainfall 0.00 in
Snow Depth Not available.
5:33 AM 6:13 PM
Waning Crescent, 0% visible
METAR MGPB 261100Z 00000KT 9999 FEW016 SCT090 24/23 Q1007 A2974
Pressure 29.74 in
Visibility 6.2 miles
Clouds Few 1600 ft
Scattered Clouds 9000 ft
Dew Point 74 °F
Humidity 99%
Rainfall 0.00 in
Snow Depth Not available.
5:33 AM 6:13 PM
Waning Crescent, 0% visible
METAR MGPB 261100Z 00000KT 9999 FEW016 SCT090 24/23 Q1007 A2974

Get Severe Weather Alerts

Thanks for signing up!

Be on the lookout for a verification email in your inbox.

You'll start receiving the daily forecast at 8 AM.

×

10-Day Weather Forecast

No radar image for this location.
×

Almanac

Astronomy

Apr. 26, 2017 Rise Set
Actual Time
Civil Twilight
Nautical Twilight
Astronomical Twilight
Moon
Length of Visible Light
Length of Day
Tomorrow will be .
, % of the Moon is Illuminated

Today's Extremes

Country Highs Country Lows

Community

WunderPhotos

WunderBlog® & News

Nearby

Air Quality

  Air Quality AQ Index Pollutant
Not available.

Snow Depth

Station Depth Elevation

Earthquake Activity

City Distance Mag. Time & Date
Minimum magnitude displayed is 2.5.

Coastal Water Temperatures

Place Temperature

Stations

Nearby Weather Stations

Station Location Temp. Windchill Dew Point Humidity Wind Precip. Elev Updated Type